sensor_id;sensor_type;location;lat;lon;timestamp;P1;durP1;ratioP1;P2;durP2;ratioP2
53072;SDS011;38955;48.916;2.336;2023-06-22T00:00:33;5.57;;;3.10;;
53072;SDS011;38955;48.916;2.336;2023-06-22T00:02:35;7.30;;;2.83;;
53072;SDS011;38955;48.916;2.336;2023-06-22T00:04:37;6.90;;;2.88;;
53072;SDS011;38955;48.916;2.336;2023-06-22T00:06:40;4.95;;;3.17;;
53072;SDS011;38955;48.916;2.336;2023-06-22T00:08:42;6.72;;;3.53;;
53072;SDS011;38955;48.916;2.336;2023-06-22T00:10:44;7.03;;;3.22;;
53072;SDS011;38955;48.916;2.336;2023-06-22T00:12:47;3.85;;;2.65;;
53072;SDS011;38955;48.916;2.336;2023-06-22T00:14:49;3.92;;;2.80;;
53072;SDS011;38955;48.916;2.336;2023-06-22T00:16:53;6.93;;;3.60;;
53072;SDS011;38955;48.916;2.336;2023-06-22T00:21:01;5.88;;;2.78;;
53072;SDS011;38955;48.916;2.336;2023-06-22T00:23:04;3.20;;;2.70;;
53072;SDS011;38955;48.916;2.336;2023-06-22T00:25:11;4.13;;;2.70;;
53072;SDS011;38955;48.916;2.336;2023-06-22T00:27:13;4.25;;;3.00;;
53072;SDS011;38955;48.916;2.336;2023-06-22T00:29:15;5.07;;;2.58;;
53072;SDS011;38955;48.916;2.336;2023-06-22T00:31:17;5.50;;;2.88;;
53072;SDS011;38955;48.916;2.336;2023-06-22T00:33:20;4.63;;;2.70;;
53072;SDS011;38955;48.916;2.336;2023-06-22T00:35:23;5.47;;;2.63;;
53072;SDS011;38955;48.916;2.336;2023-06-22T00:37:30;3.58;;;2.60;;
53072;SDS011;38955;48.916;2.336;2023-06-22T00:39:32;4.15;;;2.85;;
53072;SDS011;38955;48.916;2.336;2023-06-22T00:41:35;4.15;;;2.80;;
53072;SDS011;38955;48.916;2.336;2023-06-22T00:43:37;5.65;;;2.67;;
53072;SDS011;38955;48.916;2.336;2023-06-22T00:45:39;6.75;;;3.25;;
53072;SDS011;38955;48.916;2.336;2023-06-22T00:47:41;6.18;;;2.97;;
53072;SDS011;38955;48.916;2.336;2023-06-22T00:49:45;7.95;;;3.10;;
53072;SDS011;38955;48.916;2.336;2023-06-22T00:51:49;4.07;;;2.80;;
53072;SDS011;38955;48.916;2.336;2023-06-22T00:53:51;6.93;;;3.33;;
53072;SDS011;38955;48.916;2.336;2023-06-22T00:55:54;4.82;;;2.90;;
53072;SDS011;38955;48.916;2.336;2023-06-22T00:57:57;6.72;;;3.03;;
53072;SDS011;38955;48.916;2.336;2023-06-22T00:59:59;5.78;;;3.05;;
53072;SDS011;38955;48.916;2.336;2023-06-22T01:02:01;5.50;;;2.70;;
53072;SDS011;38955;48.916;2.336;2023-06-22T01:04:04;4.63;;;3.00;;
53072;SDS011;38955;48.916;2.336;2023-06-22T01:06:09;5.25;;;2.70;;
53072;SDS011;38955;48.916;2.336;2023-06-22T01:08:27;4.82;;;3.00;;
53072;SDS011;38955;48.916;2.336;2023-06-22T01:10:37;6.03;;;3.53;;
53072;SDS011;38955;48.916;2.336;2023-06-22T01:12:45;3.67;;;2.65;;
53072;SDS011;38955;48.916;2.336;2023-06-22T01:14:53;6.05;;;3.03;;
53072;SDS011;38955;48.916;2.336;2023-06-22T01:16:59;6.05;;;3.03;;
53072;SDS011;38955;48.916;2.336;2023-06-22T01:19:05;4.30;;;2.92;;
53072;SDS011;38955;48.916;2.336;2023-06-22T01:21:21;7.75;;;3.50;;
53072;SDS011;38955;48.916;2.336;2023-06-22T01:23:26;6.03;;;3.53;;
53072;SDS011;38955;48.916;2.336;2023-06-22T01:25:38;6.03;;;3.58;;
53072;SDS011;38955;48.916;2.336;2023-06-22T01:27:50;4.45;;;3.33;;
53072;SDS011;38955;48.916;2.336;2023-06-22T01:30:04;7.05;;;3.53;;
53072;SDS011;38955;48.916;2.336;2023-06-22T01:32:07;5.00;;;3.42;;
53072;SDS011;38955;48.916;2.336;2023-06-22T01:34:12;5.05;;;2.90;;
53072;SDS011;38955;48.916;2.336;2023-06-22T01:36:16;6.70;;;2.85;;
53072;SDS011;38955;48.916;2.336;2023-06-22T01:38:19;5.85;;;3.90;;
53072;SDS011;38955;48.916;2.336;2023-06-22T01:40:22;5.18;;;3.42;;
53072;SDS011;38955;48.916;2.336;2023-06-22T01:42:26;10.38;;;3.40;;
53072;SDS011;38955;48.916;2.336;2023-06-22T01:44:28;5.25;;;3.50;;
53072;SDS011;38955;48.916;2.336;2023-06-22T01:46:32;4.88;;;3.25;;
53072;SDS011;38955;48.916;2.336;2023-06-22T01:48:35;6.90;;;3.35;;
53072;SDS011;38955;48.916;2.336;2023-06-22T01:50:37;6.80;;;3.67;;
53072;SDS011;38955;48.916;2.336;2023-06-22T01:52:40;8.32;;;3.47;;
53072;SDS011;38955;48.916;2.336;2023-06-22T01:54:42;5.25;;;3.22;;
53072;SDS011;38955;48.916;2.336;2023-06-22T01:56:44;6.80;;;3.00;;
53072;SDS011;38955;48.916;2.336;2023-06-22T01:58:46;7.43;;;3.20;;
53072;SDS011;38955;48.916;2.336;2023-06-22T02:00:53;7.57;;;3.45;;
53072;SDS011;38955;48.916;2.336;2023-06-22T02:03:13;9.95;;;3.80;;
53072;SDS011;38955;48.916;2.336;2023-06-22T02:05:19;5.32;;;3.13;;
53072;SDS011;38955;48.916;2.336;2023-06-22T02:07:23;5.60;;;3.25;;
53072;SDS011;38955;48.916;2.336;2023-06-22T02:09:29;6.82;;;3.25;;
53072;SDS011;38955;48.916;2.336;2023-06-22T02:11:34;6.90;;;3.10;;
53072;SDS011;38955;48.916;2.336;2023-06-22T02:13:37;8.25;;;3.17;;
53072;SDS011;38955;48.916;2.336;2023-06-22T02:15:44;9.65;;;3.90;;
53072;SDS011;38955;48.916;2.336;2023-06-22T02:17:47;6.60;;;3.45;;
53072;SDS011;38955;48.916;2.336;2023-06-22T02:19:51;6.80;;;3.25;;
53072;SDS011;38955;48.916;2.336;2023-06-22T02:21:53;4.07;;;3.37;;
53072;SDS011;38955;48.916;2.336;2023-06-22T02:23:55;7.75;;;3.50;;
53072;SDS011;38955;48.916;2.336;2023-06-22T02:25:57;6.53;;;3.15;;
53072;SDS011;38955;48.916;2.336;2023-06-22T02:28:00;6.32;;;3.50;;
53072;SDS011;38955;48.916;2.336;2023-06-22T02:30:02;4.68;;;3.03;;
53072;SDS011;38955;48.916;2.336;2023-06-22T02:32:05;4.65;;;3.58;;
53072;SDS011;38955;48.916;2.336;2023-06-22T02:34:07;7.60;;;3.80;;
53072;SDS011;38955;48.916;2.336;2023-06-22T02:36:11;5.65;;;3.67;;
53072;SDS011;38955;48.916;2.336;2023-06-22T02:40:16;8.35;;;3.55;;
53072;SDS011;38955;48.916;2.336;2023-06-22T02:42:18;4.35;;;3.30;;
53072;SDS011;38955;48.916;2.336;2023-06-22T02:44:22;7.40;;;3.83;;
53072;SDS011;38955;48.916;2.336;2023-06-22T02:46:24;12.15;;;3.97;;
53072;SDS011;38955;48.916;2.336;2023-06-22T02:48:27;6.72;;;4.05;;
53072;SDS011;38955;48.916;2.336;2023-06-22T02:50:29;7.30;;;3.63;;
53072;SDS011;38955;48.916;2.336;2023-06-22T02:52:33;7.25;;;4.20;;
53072;SDS011;38955;48.916;2.336;2023-06-22T02:54:35;5.35;;;3.45;;
53072;SDS011;38955;48.916;2.336;2023-06-22T02:56:37;6.32;;;3.83;;
53072;SDS011;38955;48.916;2.336;2023-06-22T02:58:39;6.57;;;3.75;;
53072;SDS011;38955;48.916;2.336;2023-06-22T03:00:41;5.45;;;3.97;;
53072;SDS011;38955;48.916;2.336;2023-06-22T03:02:44;8.82;;;4.35;;
53072;SDS011;38955;48.916;2.336;2023-06-22T03:04:46;5.32;;;3.75;;
53072;SDS011;38955;48.916;2.336;2023-06-22T03:06:50;6.07;;;3.88;;
53072;SDS011;38955;48.916;2.336;2023-06-22T03:08:57;4.25;;;3.75;;
53072;SDS011;38955;48.916;2.336;2023-06-22T03:11:00;4.93;;;3.45;;
53072;SDS011;38955;48.916;2.336;2023-06-22T03:13:02;7.43;;;3.75;;
53072;SDS011;38955;48.916;2.336;2023-06-22T03:15:05;6.00;;;3.80;;
53072;SDS011;38955;48.916;2.336;2023-06-22T03:17:08;5.30;;;3.88;;
53072;SDS011;38955;48.916;2.336;2023-06-22T03:19:12;8.77;;;4.13;;
53072;SDS011;38955;48.916;2.336;2023-06-22T03:21:15;4.85;;;3.42;;
53072;SDS011;38955;48.916;2.336;2023-06-22T03:23:18;9.00;;;4.30;;
53072;SDS011;38955;48.916;2.336;2023-06-22T03:25:21;5.65;;;3.63;;
53072;SDS011;38955;48.916;2.336;2023-06-22T03:27:23;5.38;;;3.80;;
53072;SDS011;38955;48.916;2.336;2023-06-22T03:29:25;6.70;;;3.85;;
53072;SDS011;38955;48.916;2.336;2023-06-22T03:31:31;6.03;;;4.15;;
53072;SDS011;38955;48.916;2.336;2023-06-22T03:33:33;8.07;;;4.40;;
53072;SDS011;38955;48.916;2.336;2023-06-22T03:35:35;4.95;;;3.70;;
53072;SDS011;38955;48.916;2.336;2023-06-22T03:37:37;6.90;;;3.65;;
53072;SDS011;38955;48.916;2.336;2023-06-22T03:39:40;5.88;;;4.25;;
53072;SDS011;38955;48.916;2.336;2023-06-22T03:41:43;6.65;;;4.00;;
53072;SDS011;38955;48.916;2.336;2023-06-22T03:43:45;7.45;;;4.03;;
53072;SDS011;38955;48.916;2.336;2023-06-22T03:45:47;6.05;;;3.97;;
53072;SDS011;38955;48.916;2.336;2023-06-22T03:47:49;7.35;;;3.85;;
53072;SDS011;38955;48.916;2.336;2023-06-22T03:49:51;7.65;;;4.13;;
53072;SDS011;38955;48.916;2.336;2023-06-22T03:51:56;13.10;;;4.03;;
53072;SDS011;38955;48.916;2.336;2023-06-22T03:53:58;10.48;;;4.70;;
53072;SDS011;38955;48.916;2.336;2023-06-22T03:56:00;6.82;;;4.50;;
53072;SDS011;38955;48.916;2.336;2023-06-22T03:58:04;7.75;;;4.90;;
53072;SDS011;38955;48.916;2.336;2023-06-22T04:02:11;7.13;;;4.00;;
53072;SDS011;38955;48.916;2.336;2023-06-22T04:04:13;7.47;;;4.60;;
53072;SDS011;38955;48.916;2.336;2023-06-22T04:06:15;7.68;;;4.45;;
53072;SDS011;38955;48.916;2.336;2023-06-22T04:08:17;8.05;;;4.82;;
53072;SDS011;38955;48.916;2.336;2023-06-22T04:10:19;8.23;;;4.00;;
53072;SDS011;38955;48.916;2.336;2023-06-22T04:12:22;8.57;;;4.43;;
53072;SDS011;38955;48.916;2.336;2023-06-22T04:14:25;9.30;;;4.70;;
53072;SDS011;38955;48.916;2.336;2023-06-22T04:16:27;7.30;;;4.57;;
53072;SDS011;38955;48.916;2.336;2023-06-22T04:18:29;8.23;;;4.60;;
53072;SDS011;38955;48.916;2.336;2023-06-22T04:20:31;7.50;;;3.65;;
53072;SDS011;38955;48.916;2.336;2023-06-22T04:22:34;5.90;;;4.68;;
53072;SDS011;38955;48.916;2.336;2023-06-22T04:24:36;7.30;;;4.32;;
53072;SDS011;38955;48.916;2.336;2023-06-22T04:26:38;7.43;;;4.65;;
53072;SDS011;38955;48.916;2.336;2023-06-22T04:28:42;8.57;;;4.67;;
53072;SDS011;38955;48.916;2.336;2023-06-22T04:30:46;6.40;;;4.22;;
53072;SDS011;38955;48.916;2.336;2023-06-22T04:32:48;8.10;;;5.22;;
53072;SDS011;38955;48.916;2.336;2023-06-22T04:34:57;12.02;;;5.30;;
53072;SDS011;38955;48.916;2.336;2023-06-22T04:37:01;7.85;;;4.85;;
53072;SDS011;38955;48.916;2.336;2023-06-22T04:39:04;13.05;;;6.22;;
53072;SDS011;38955;48.916;2.336;2023-06-22T04:41:07;6.65;;;4.88;;
53072;SDS011;38955;48.916;2.336;2023-06-22T04:43:15;7.18;;;4.82;;
53072;SDS011;38955;48.916;2.336;2023-06-22T04:45:18;10.23;;;5.43;;
53072;SDS011;38955;48.916;2.336;2023-06-22T04:47:22;7.78;;;5.72;;
53072;SDS011;38955;48.916;2.336;2023-06-22T04:49:24;9.32;;;5.88;;
53072;SDS011;38955;48.916;2.336;2023-06-22T04:51:34;7.68;;;5.78;;
53072;SDS011;38955;48.916;2.336;2023-06-22T04:53:39;9.93;;;5.72;;
53072;SDS011;38955;48.916;2.336;2023-06-22T04:55:42;11.10;;;5.82;;
53072;SDS011;38955;48.916;2.336;2023-06-22T04:59:52;13.88;;;6.80;;
53072;SDS011;38955;48.916;2.336;2023-06-22T05:01:54;9.70;;;6.45;;
53072;SDS011;38955;48.916;2.336;2023-06-22T05:03:58;9.98;;;6.63;;
53072;SDS011;38955;48.916;2.336;2023-06-22T05:06:02;13.48;;;7.03;;
53072;SDS011;38955;48.916;2.336;2023-06-22T05:08:05;10.27;;;6.45;;
53072;SDS011;38955;48.916;2.336;2023-06-22T05:10:08;12.15;;;7.05;;
53072;SDS011;38955;48.916;2.336;2023-06-22T05:12:11;9.30;;;6.50;;
53072;SDS011;38955;48.916;2.336;2023-06-22T05:14:13;11.13;;;7.13;;
53072;SDS011;38955;48.916;2.336;2023-06-22T05:16:15;13.07;;;7.75;;
53072;SDS011;38955;48.916;2.336;2023-06-22T05:18:18;10.77;;;7.35;;
53072;SDS011;38955;48.916;2.336;2023-06-22T05:20:26;13.23;;;8.10;;
53072;SDS011;38955;48.916;2.336;2023-06-22T05:22:28;14.25;;;7.93;;
53072;SDS011;38955;48.916;2.336;2023-06-22T05:24:30;11.75;;;8.13;;
53072;SDS011;38955;48.916;2.336;2023-06-22T05:26:33;13.93;;;9.15;;
53072;SDS011;38955;48.916;2.336;2023-06-22T05:28:35;18.55;;;9.13;;
53072;SDS011;38955;48.916;2.336;2023-06-22T05:30:38;15.82;;;9.20;;
53072;SDS011;38955;48.916;2.336;2023-06-22T05:32:40;11.40;;;8.85;;
53072;SDS011;38955;48.916;2.336;2023-06-22T05:34:42;19.90;;;9.35;;
53072;SDS011;38955;48.916;2.336;2023-06-22T05:36:45;16.00;;;9.77;;
53072;SDS011;38955;48.916;2.336;2023-06-22T05:38:47;17.73;;;9.48;;
53072;SDS011;38955;48.916;2.336;2023-06-22T05:40:50;20.58;;;11.07;;
53072;SDS011;38955;48.916;2.336;2023-06-22T05:42:52;14.25;;;9.93;;
53072;SDS011;38955;48.916;2.336;2023-06-22T05:44:54;27.58;;;9.52;;
53072;SDS011;38955;48.916;2.336;2023-06-22T05:46:56;24.00;;;9.20;;
53072;SDS011;38955;48.916;2.336;2023-06-22T05:48:59;25.10;;;10.25;;
53072;SDS011;38955;48.916;2.336;2023-06-22T05:51:01;23.25;;;11.32;;
53072;SDS011;38955;48.916;2.336;2023-06-22T05:53:05;18.60;;;10.85;;
53072;SDS011;38955;48.916;2.336;2023-06-22T05:55:08;18.70;;;11.63;;
53072;SDS011;38955;48.916;2.336;2023-06-22T05:57:11;26.60;;;11.35;;
53072;SDS011;38955;48.916;2.336;2023-06-22T05:59:13;33.30;;;12.27;;
53072;SDS011;38955;48.916;2.336;2023-06-22T06:01:15;22.42;;;10.90;;
53072;SDS011;38955;48.916;2.336;2023-06-22T06:03:17;23.98;;;10.88;;
53072;SDS011;38955;48.916;2.336;2023-06-22T06:05:19;15.32;;;11.07;;
53072;SDS011;38955;48.916;2.336;2023-06-22T06:07:25;16.27;;;10.68;;
53072;SDS011;38955;48.916;2.336;2023-06-22T06:09:29;16.27;;;10.70;;
53072;SDS011;38955;48.916;2.336;2023-06-22T06:11:30;14.45;;;10.10;;
53072;SDS011;38955;48.916;2.336;2023-06-22T06:13:34;14.98;;;10.90;;
53072;SDS011;38955;48.916;2.336;2023-06-22T06:15:37;16.92;;;10.55;;
53072;SDS011;38955;48.916;2.336;2023-06-22T06:17:45;26.40;;;13.07;;
53072;SDS011;38955;48.916;2.336;2023-06-22T06:19:48;23.75;;;12.73;;
53072;SDS011;38955;48.916;2.336;2023-06-22T06:21:50;17.58;;;10.65;;
53072;SDS011;38955;48.916;2.336;2023-06-22T06:23:52;21.20;;;11.57;;
53072;SDS011;38955;48.916;2.336;2023-06-22T06:25:56;22.35;;;10.65;;
53072;SDS011;38955;48.916;2.336;2023-06-22T06:27:58;26.92;;;11.60;;
53072;SDS011;38955;48.916;2.336;2023-06-22T06:30:01;19.23;;;11.13;;
53072;SDS011;38955;48.916;2.336;2023-06-22T06:32:03;24.25;;;11.65;;
53072;SDS011;38955;48.916;2.336;2023-06-22T06:34:06;20.67;;;12.93;;
53072;SDS011;38955;48.916;2.336;2023-06-22T06:36:08;24.13;;;12.52;;
53072;SDS011;38955;48.916;2.336;2023-06-22T06:38:10;24.30;;;13.38;;
53072;SDS011;38955;48.916;2.336;2023-06-22T06:40:13;24.92;;;13.05;;
53072;SDS011;38955;48.916;2.336;2023-06-22T06:42:17;15.00;;;12.07;;
53072;SDS011;38955;48.916;2.336;2023-06-22T06:44:20;31.42;;;14.85;;
53072;SDS011;38955;48.916;2.336;2023-06-22T06:46:22;22.90;;;12.77;;
53072;SDS011;38955;48.916;2.336;2023-06-22T06:48:25;22.60;;;14.02;;
53072;SDS011;38955;48.916;2.336;2023-06-22T06:50:27;24.27;;;15.15;;
53072;SDS011;38955;48.916;2.336;2023-06-22T06:52:30;21.63;;;13.77;;
53072;SDS011;38955;48.916;2.336;2023-06-22T06:54:32;22.05;;;13.30;;
53072;SDS011;38955;48.916;2.336;2023-06-22T06:56:34;26.15;;;15.23;;
53072;SDS011;38955;48.916;2.336;2023-06-22T06:58:38;23.42;;;13.73;;
53072;SDS011;38955;48.916;2.336;2023-06-22T07:00:42;27.08;;;15.98;;
53072;SDS011;38955;48.916;2.336;2023-06-22T07:02:45;24.65;;;14.70;;
53072;SDS011;38955;48.916;2.336;2023-06-22T07:04:49;29.70;;;16.45;;
53072;SDS011;38955;48.916;2.336;2023-06-22T07:06:52;32.15;;;17.20;;
53072;SDS011;38955;48.916;2.336;2023-06-22T07:08:53;28.40;;;16.60;;
53072;SDS011;38955;48.916;2.336;2023-06-22T07:10:56;31.58;;;17.38;;
53072;SDS011;38955;48.916;2.336;2023-06-22T07:12:58;33.63;;;18.55;;
53072;SDS011;38955;48.916;2.336;2023-06-22T07:15:02;24.67;;;14.55;;
53072;SDS011;38955;48.916;2.336;2023-06-22T07:17:05;29.55;;;17.90;;
53072;SDS011;38955;48.916;2.336;2023-06-22T07:19:07;31.30;;;18.15;;
53072;SDS011;38955;48.916;2.336;2023-06-22T07:21:11;29.00;;;16.88;;
53072;SDS011;38955;48.916;2.336;2023-06-22T07:23:13;30.20;;;17.25;;
53072;SDS011;38955;48.916;2.336;2023-06-22T07:25:14;28.67;;;17.08;;
53072;SDS011;38955;48.916;2.336;2023-06-22T07:27:18;37.97;;;17.42;;
53072;SDS011;38955;48.916;2.336;2023-06-22T07:29:21;29.42;;;15.43;;
53072;SDS011;38955;48.916;2.336;2023-06-22T07:31:25;22.35;;;15.43;;
53072;SDS011;38955;48.916;2.336;2023-06-22T07:33:27;29.80;;;16.23;;
53072;SDS011;38955;48.916;2.336;2023-06-22T07:35:29;28.75;;;16.90;;
53072;SDS011;38955;48.916;2.336;2023-06-22T07:37:32;24.13;;;15.68;;
53072;SDS011;38955;48.916;2.336;2023-06-22T07:39:35;27.20;;;17.02;;
53072;SDS011;38955;48.916;2.336;2023-06-22T07:41:39;34.90;;;18.85;;
53072;SDS011;38955;48.916;2.336;2023-06-22T07:43:44;29.58;;;17.92;;
53072;SDS011;38955;48.916;2.336;2023-06-22T07:45:48;23.40;;;16.38;;
53072;SDS011;38955;48.916;2.336;2023-06-22T07:47:55;42.60;;;19.70;;
53072;SDS011;38955;48.916;2.336;2023-06-22T07:49:58;31.30;;;17.38;;
53072;SDS011;38955;48.916;2.336;2023-06-22T07:52:03;31.20;;;19.48;;
53072;SDS011;38955;48.916;2.336;2023-06-22T07:54:08;38.65;;;19.88;;
53072;SDS011;38955;48.916;2.336;2023-06-22T07:56:11;34.22;;;19.63;;
53072;SDS011;38955;48.916;2.336;2023-06-22T07:58:13;29.67;;;18.98;;
53072;SDS011;38955;48.916;2.336;2023-06-22T08:00:15;24.70;;;16.95;;
53072;SDS011;38955;48.916;2.336;2023-06-22T08:02:18;24.70;;;17.23;;
53072;SDS011;38955;48.916;2.336;2023-06-22T08:04:22;26.98;;;16.63;;
53072;SDS011;38955;48.916;2.336;2023-06-22T08:06:24;33.75;;;20.42;;
53072;SDS011;38955;48.916;2.336;2023-06-22T08:08:26;28.95;;;18.52;;
53072;SDS011;38955;48.916;2.336;2023-06-22T08:10:28;25.48;;;18.15;;
53072;SDS011;38955;48.916;2.336;2023-06-22T08:12:30;27.55;;;17.15;;
53072;SDS011;38955;48.916;2.336;2023-06-22T08:14:33;28.42;;;18.33;;
53072;SDS011;38955;48.916;2.336;2023-06-22T08:16:39;27.05;;;17.00;;
53072;SDS011;38955;48.916;2.336;2023-06-22T08:18:42;27.13;;;17.33;;
53072;SDS011;38955;48.916;2.336;2023-06-22T08:20:46;28.25;;;16.67;;
53072;SDS011;38955;48.916;2.336;2023-06-22T08:22:48;28.75;;;17.08;;
53072;SDS011;38955;48.916;2.336;2023-06-22T08:24:50;26.30;;;18.13;;
53072;SDS011;38955;48.916;2.336;2023-06-22T08:26:52;27.10;;;17.55;;
53072;SDS011;38955;48.916;2.336;2023-06-22T08:28:54;26.75;;;18.60;;
53072;SDS011;38955;48.916;2.336;2023-06-22T08:30:56;26.20;;;18.83;;
53072;SDS011;38955;48.916;2.336;2023-06-22T08:32:58;26.45;;;16.88;;
53072;SDS011;38955;48.916;2.336;2023-06-22T08:35:01;28.52;;;18.33;;
53072;SDS011;38955;48.916;2.336;2023-06-22T08:37:04;25.05;;;17.90;;
53072;SDS011;38955;48.916;2.336;2023-06-22T08:39:07;24.50;;;16.75;;
53072;SDS011;38955;48.916;2.336;2023-06-22T08:41:10;22.15;;;16.88;;
53072;SDS011;38955;48.916;2.336;2023-06-22T08:43:12;26.55;;;17.75;;
53072;SDS011;38955;48.916;2.336;2023-06-22T08:45:15;28.20;;;18.35;;
53072;SDS011;38955;48.916;2.336;2023-06-22T08:47:17;24.25;;;16.88;;
53072;SDS011;38955;48.916;2.336;2023-06-22T08:49:19;30.85;;;18.05;;
53072;SDS011;38955;48.916;2.336;2023-06-22T08:51:21;24.20;;;16.83;;
53072;SDS011;38955;48.916;2.336;2023-06-22T08:53:25;25.52;;;15.43;;
53072;SDS011;38955;48.916;2.336;2023-06-22T08:55:27;23.20;;;15.70;;
53072;SDS011;38955;48.916;2.336;2023-06-22T08:57:29;24.23;;;14.88;;
53072;SDS011;38955;48.916;2.336;2023-06-22T08:59:36;36.17;;;17.20;;
53072;SDS011;38955;48.916;2.336;2023-06-22T09:01:38;26.23;;;16.63;;
53072;SDS011;38955;48.916;2.336;2023-06-22T09:03:41;35.25;;;17.17;;
53072;SDS011;38955;48.916;2.336;2023-06-22T09:05:43;26.20;;;16.80;;
53072;SDS011;38955;48.916;2.336;2023-06-22T09:07:45;24.02;;;15.55;;
53072;SDS011;38955;48.916;2.336;2023-06-22T09:09:49;23.67;;;16.45;;
53072;SDS011;38955;48.916;2.336;2023-06-22T09:11:52;21.02;;;15.43;;
53072;SDS011;38955;48.916;2.336;2023-06-22T09:13:54;28.35;;;16.48;;
53072;SDS011;38955;48.916;2.336;2023-06-22T09:15:56;26.92;;;18.10;;
53072;SDS011;38955;48.916;2.336;2023-06-22T09:17:58;21.35;;;15.63;;
53072;SDS011;38955;48.916;2.336;2023-06-22T09:20:02;17.42;;;10.32;;
53072;SDS011;38955;48.916;2.336;2023-06-22T09:22:08;12.68;;;10.63;;
53072;SDS011;38955;48.916;2.336;2023-06-22T09:24:10;15.45;;;11.02;;
53072;SDS011;38955;48.916;2.336;2023-06-22T09:26:14;20.30;;;11.82;;
53072;SDS011;38955;48.916;2.336;2023-06-22T09:28:16;14.98;;;10.73;;
53072;SDS011;38955;48.916;2.336;2023-06-22T09:30:18;19.10;;;11.77;;
53072;SDS011;38955;48.916;2.336;2023-06-22T09:32:20;17.95;;;11.10;;
53072;SDS011;38955;48.916;2.336;2023-06-22T09:34:22;17.52;;;11.93;;
53072;SDS011;38955;48.916;2.336;2023-06-22T09:36:25;15.32;;;10.48;;
53072;SDS011;38955;48.916;2.336;2023-06-22T09:38:27;17.08;;;11.27;;
53072;SDS011;38955;48.916;2.336;2023-06-22T09:40:29;16.98;;;11.73;;
53072;SDS011;38955;48.916;2.336;2023-06-22T09:42:33;14.40;;;9.73;;
53072;SDS011;38955;48.916;2.336;2023-06-22T09:44:35;17.00;;;10.88;;
53072;SDS011;38955;48.916;2.336;2023-06-22T09:46:37;18.80;;;10.50;;
53072;SDS011;38955;48.916;2.336;2023-06-22T09:48:39;19.13;;;12.50;;
53072;SDS011;38955;48.916;2.336;2023-06-22T09:50:42;16.63;;;10.20;;
53072;SDS011;38955;48.916;2.336;2023-06-22T09:52:44;18.05;;;10.35;;
53072;SDS011;38955;48.916;2.336;2023-06-22T09:54:49;17.05;;;11.93;;
53072;SDS011;38955;48.916;2.336;2023-06-22T09:56:51;15.77;;;11.93;;
53072;SDS011;38955;48.916;2.336;2023-06-22T09:58:54;18.80;;;12.93;;
53072;SDS011;38955;48.916;2.336;2023-06-22T10:01:14;16.88;;;12.00;;
53072;SDS011;38955;48.916;2.336;2023-06-22T10:03:16;20.00;;;12.15;;
53072;SDS011;38955;48.916;2.336;2023-06-22T10:05:18;15.63;;;11.73;;
53072;SDS011;38955;48.916;2.336;2023-06-22T10:07:20;16.73;;;12.32;;
53072;SDS011;38955;48.916;2.336;2023-06-22T10:09:23;19.42;;;12.75;;
53072;SDS011;38955;48.916;2.336;2023-06-22T10:11:25;16.80;;;10.82;;
53072;SDS011;38955;48.916;2.336;2023-06-22T10:13:31;17.23;;;11.70;;
53072;SDS011;38955;48.916;2.336;2023-06-22T10:15:35;17.15;;;11.55;;
53072;SDS011;38955;48.916;2.336;2023-06-22T10:17:37;14.43;;;10.55;;
53072;SDS011;38955;48.916;2.336;2023-06-22T10:19:39;12.05;;;9.75;;
53072;SDS011;38955;48.916;2.336;2023-06-22T10:21:43;14.40;;;10.07;;
53072;SDS011;38955;48.916;2.336;2023-06-22T10:23:45;13.25;;;9.60;;
53072;SDS011;38955;48.916;2.336;2023-06-22T10:25:47;12.27;;;9.70;;
53072;SDS011;38955;48.916;2.336;2023-06-22T10:27:49;12.27;;;8.63;;
53072;SDS011;38955;48.916;2.336;2023-06-22T10:29:51;10.27;;;8.32;;
53072;SDS011;38955;48.916;2.336;2023-06-22T10:31:56;10.63;;;8.32;;
53072;SDS011;38955;48.916;2.336;2023-06-22T10:33:58;11.50;;;8.32;;
53072;SDS011;38955;48.916;2.336;2023-06-22T10:36:00;13.57;;;8.38;;
53072;SDS011;38955;48.916;2.336;2023-06-22T10:38:02;11.15;;;8.52;;
53072;SDS011;38955;48.916;2.336;2023-06-22T10:40:06;8.40;;;7.50;;
53072;SDS011;38955;48.916;2.336;2023-06-22T10:42:09;11.95;;;7.90;;
53072;SDS011;38955;48.916;2.336;2023-06-22T10:44:11;11.05;;;8.00;;
53072;SDS011;38955;48.916;2.336;2023-06-22T10:46:13;12.18;;;8.18;;
53072;SDS011;38955;48.916;2.336;2023-06-22T10:48:17;9.98;;;7.20;;
53072;SDS011;38955;48.916;2.336;2023-06-22T10:50:19;16.73;;;7.88;;
53072;SDS011;38955;48.916;2.336;2023-06-22T10:52:21;12.38;;;7.70;;
53072;SDS011;38955;48.916;2.336;2023-06-22T10:54:23;12.27;;;8.38;;
53072;SDS011;38955;48.916;2.336;2023-06-22T10:56:25;10.82;;;7.25;;
53072;SDS011;38955;48.916;2.336;2023-06-22T10:58:27;12.82;;;8.18;;
53072;SDS011;38955;48.916;2.336;2023-06-22T11:00:30;10.13;;;8.02;;
53072;SDS011;38955;48.916;2.336;2023-06-22T11:02:32;10.20;;;6.80;;
53072;SDS011;38955;48.916;2.336;2023-06-22T11:04:35;11.15;;;7.95;;
53072;SDS011;38955;48.916;2.336;2023-06-22T11:06:37;10.60;;;7.65;;
53072;SDS011;38955;48.916;2.336;2023-06-22T11:08:40;9.27;;;6.97;;
53072;SDS011;38955;48.916;2.336;2023-06-22T11:11:04;11.45;;;7.70;;
53072;SDS011;38955;48.916;2.336;2023-06-22T11:13:06;12.00;;;6.50;;
53072;SDS011;38955;48.916;2.336;2023-06-22T11:15:14;10.45;;;6.80;;
53072;SDS011;38955;48.916;2.336;2023-06-22T11:17:16;10.65;;;7.30;;
53072;SDS011;38955;48.916;2.336;2023-06-22T11:19:18;9.85;;;6.75;;
53072;SDS011;38955;48.916;2.336;2023-06-22T11:21:22;11.38;;;6.95;;
53072;SDS011;38955;48.916;2.336;2023-06-22T11:23:24;8.75;;;6.45;;
53072;SDS011;38955;48.916;2.336;2023-06-22T11:25:27;7.75;;;6.45;;
53072;SDS011;38955;48.916;2.336;2023-06-22T11:27:30;9.20;;;6.47;;
53072;SDS011;38955;48.916;2.336;2023-06-22T11:29:32;13.65;;;6.70;;
53072;SDS011;38955;48.916;2.336;2023-06-22T11:31:38;8.07;;;6.47;;
53072;SDS011;38955;48.916;2.336;2023-06-22T11:33:41;12.02;;;6.50;;
53072;SDS011;38955;48.916;2.336;2023-06-22T11:35:43;10.80;;;6.80;;
53072;SDS011;38955;48.916;2.336;2023-06-22T11:37:46;10.13;;;7.07;;
53072;SDS011;38955;48.916;2.336;2023-06-22T11:39:48;10.18;;;6.65;;
53072;SDS011;38955;48.916;2.336;2023-06-22T11:42:07;11.43;;;7.13;;
53072;SDS011;38955;48.916;2.336;2023-06-22T11:44:10;10.38;;;7.22;;
53072;SDS011;38955;48.916;2.336;2023-06-22T11:46:12;15.68;;;9.07;;
53072;SDS011;38955;48.916;2.336;2023-06-22T11:48:14;11.98;;;7.78;;
53072;SDS011;38955;48.916;2.336;2023-06-22T11:50:16;9.70;;;7.97;;
53072;SDS011;38955;48.916;2.336;2023-06-22T11:52:18;10.90;;;7.40;;
53072;SDS011;38955;48.916;2.336;2023-06-22T11:54:22;12.93;;;8.68;;
53072;SDS011;38955;48.916;2.336;2023-06-22T11:56:24;9.45;;;6.78;;
53072;SDS011;38955;48.916;2.336;2023-06-22T11:58:26;11.45;;;7.32;;
53072;SDS011;38955;48.916;2.336;2023-06-22T12:00:28;12.57;;;8.27;;
53072;SDS011;38955;48.916;2.336;2023-06-22T12:02:31;11.10;;;7.72;;
53072;SDS011;38955;48.916;2.336;2023-06-22T12:04:33;11.95;;;8.30;;
53072;SDS011;38955;48.916;2.336;2023-06-22T12:06:37;12.88;;;8.77;;
53072;SDS011;38955;48.916;2.336;2023-06-22T12:08:43;12.82;;;8.18;;
53072;SDS011;38955;48.916;2.336;2023-06-22T12:10:47;10.75;;;8.32;;
53072;SDS011;38955;48.916;2.336;2023-06-22T12:12:51;17.85;;;8.90;;
53072;SDS011;38955;48.916;2.336;2023-06-22T12:14:53;10.98;;;8.63;;
53072;SDS011;38955;48.916;2.336;2023-06-22T12:16:55;12.45;;;8.10;;
53072;SDS011;38955;48.916;2.336;2023-06-22T12:18:58;10.43;;;8.07;;
53072;SDS011;38955;48.916;2.336;2023-06-22T12:21:00;12.05;;;8.32;;